Terminal Aerodrome Forecast
Issued by NWS Kansas City/Pleasant Hill, MO

Home | Current Version | Previous Version | Text Only | Print | Product List | Glossary On
Versions: 1 2 3 4 5 6 7 8 9 10 11 12 13 14 15 16 17 18
000
FTUS43 KEAX 181700
TAFMCI
TAF
KMCI 181736Z 1818/1918 23008KT 6SM -RA VCTS BKN050CB OVC070
     FM182300 14005KT P6SM BKN060
     FM191200 29005KT P6SM -SHRA VCTS BKN040CB=

USA.gov is the U.S. government's official web portal to all federal, state and local government web resources and services.